createdAt,value
2022-11-09T00:01:22.680Z,14.10
2022-11-09T00:03:46.089Z,14.00
2022-11-09T00:06:09.475Z,14.00
2022-11-09T00:08:32.950Z,14.00
2022-11-09T00:10:56.505Z,14.00
2022-11-09T00:13:21.572Z,14.00
2022-11-09T00:15:45.228Z,13.90
2022-11-09T00:18:08.663Z,13.90
2022-11-09T00:20:32.065Z,13.90
2022-11-09T00:22:55.445Z,13.90
2022-11-09T00:25:19.046Z,13.90
2022-11-09T00:27:42.383Z,13.80
2022-11-09T00:30:10.424Z,13.70
2022-11-09T00:32:33.782Z,13.70
2022-11-09T00:34:57.111Z,13.60
2022-11-09T00:37:20.596Z,13.60
2022-11-09T00:39:44.060Z,13.50
2022-11-09T00:42:08.131Z,13.50
2022-11-09T00:44:31.456Z,13.50
2022-11-09T00:46:56.089Z,13.50
2022-11-09T00:49:19.560Z,13.40
2022-11-09T00:51:42.835Z,13.40
2022-11-09T00:54:08.070Z,13.50
2022-11-09T00:56:31.370Z,13.40
2022-11-09T00:58:56.531Z,13.50
2022-11-09T01:01:19.856Z,13.40
2022-11-09T01:03:45.426Z,13.50
2022-11-09T01:06:09.776Z,13.50
2022-11-09T01:08:34.100Z,13.50
2022-11-09T01:10:57.590Z,13.50
2022-11-09T01:13:21.549Z,13.60
2022-11-09T01:15:47.511Z,13.60
2022-11-09T01:18:11.188Z,13.70
2022-11-09T01:20:35.832Z,13.80
2022-11-09T01:22:59.160Z,13.70
2022-11-09T01:25:26.244Z,13.50
2022-11-09T01:27:51.404Z,13.50
2022-11-09T01:30:15.350Z,13.50
2022-11-09T01:32:38.714Z,13.30
2022-11-09T01:35:02.001Z,13.40
2022-11-09T01:37:28.700Z,13.30
2022-11-09T01:39:52.253Z,13.30
2022-11-09T01:42:16.744Z,13.30
2022-11-09T01:44:40.313Z,13.40
2022-11-09T01:47:08.959Z,13.30
2022-11-09T01:49:41.852Z,13.30
2022-11-09T01:52:08.459Z,13.30
2022-11-09T01:54:37.683Z,13.20
2022-11-09T01:57:06.393Z,13.20
2022-11-09T01:59:34.450Z,13.30
2022-11-09T02:01:58.904Z,13.30
2022-11-09T02:04:25.765Z,13.20
2022-11-09T02:06:51.068Z,13.30
2022-11-09T02:09:24.275Z,13.20
2022-11-09T02:11:48.886Z,13.50
2022-11-09T02:14:13.121Z,13.40
2022-11-09T02:16:36.597Z,13.50
2022-11-09T02:19:01.876Z,13.50
2022-11-09T02:21:30.962Z,13.50
2022-11-09T02:23:54.784Z,13.50
2022-11-09T02:26:25.119Z,13.50
2022-11-09T02:28:48.711Z,13.40
2022-11-09T02:31:16.031Z,13.50
2022-11-09T02:33:55.518Z,13.50
2022-11-09T02:36:19.262Z,13.50
2022-11-09T02:38:44.515Z,13.50
2022-11-09T02:41:08.826Z,13.50
2022-11-09T02:43:32.588Z,13.40
2022-11-09T02:45:56.695Z,13.50
2022-11-09T02:48:20.959Z,13.40
2022-11-09T02:50:44.371Z,13.50
2022-11-09T02:53:07.755Z,13.50
2022-11-09T02:55:35.727Z,13.40
2022-11-09T02:57:59.092Z,13.40
2022-11-09T03:00:22.757Z,13.50
2022-11-09T03:02:46.939Z,13.50
2022-11-09T03:05:12.091Z,13.50
2022-11-09T03:07:38.463Z,13.40
2022-11-09T03:10:02.172Z,13.50
2022-11-09T03:12:29.951Z,13.60
2022-11-09T03:15:00.710Z,13.60
2022-11-09T03:17:24.655Z,13.60
2022-11-09T03:19:48.168Z,13.60
2022-11-09T03:22:11.782Z,13.60
2022-11-09T03:24:35.224Z,13.80
2022-11-09T03:26:58.558Z,13.80
2022-11-09T03:29:23.435Z,13.70
2022-11-09T03:31:46.960Z,13.80
2022-11-09T03:34:10.179Z,13.70
2022-11-09T03:36:33.465Z,13.80
2022-11-09T03:38:57.004Z,13.70
2022-11-09T03:41:20.415Z,13.80
2022-11-09T03:43:43.648Z,13.80
2022-11-09T03:46:08.436Z,14.00
2022-11-09T03:48:31.679Z,14.00
2022-11-09T03:50:55.011Z,14.00
2022-11-09T03:53:18.586Z,14.10
2022-11-09T03:55:42.210Z,14.00
2022-11-09T03:58:06.615Z,13.90
2022-11-09T04:00:30.192Z,14.00
2022-11-09T04:02:57.251Z,14.00
2022-11-09T04:05:20.779Z,13.90
2022-11-09T04:07:49.348Z,13.90
2022-11-09T04:10:12.587Z,13.90
2022-11-09T04:12:35.841Z,13.90
2022-11-09T04:14:59.268Z,13.90
2022-11-09T04:17:22.564Z,13.90
2022-11-09T04:19:47.188Z,13.90
2022-11-09T04:22:10.608Z,14.00
2022-11-09T04:24:33.959Z,14.00
2022-11-09T04:26:57.216Z,14.00
2022-11-09T04:29:20.510Z,13.90
2022-11-09T04:31:43.821Z,13.90
2022-11-09T04:34:07.165Z,14.00
2022-11-09T04:36:31.844Z,14.00
2022-11-09T04:38:55.153Z,14.00
2022-11-09T04:41:18.452Z,14.00
2022-11-09T04:43:41.959Z,14.00
2022-11-09T04:46:05.877Z,14.00
2022-11-09T04:48:29.690Z,13.90
2022-11-09T04:50:53.036Z,13.80
2022-11-09T04:53:17.652Z,13.70
2022-11-09T04:55:42.224Z,13.70
2022-11-09T04:58:06.111Z,13.50
2022-11-09T05:00:29.444Z,13.50
2022-11-09T05:02:52.691Z,13.60
2022-11-09T05:05:16.307Z,13.60
2022-11-09T05:07:39.575Z,13.50
2022-11-09T05:10:04.852Z,13.50
2022-11-09T05:12:28.167Z,13.50
2022-11-09T05:14:51.547Z,13.50
2022-11-09T05:17:14.816Z,13.50
2022-11-09T05:19:38.151Z,13.50
2022-11-09T05:22:22.399Z,13.50
2022-11-09T05:24:44.780Z,13.30
2022-11-09T05:27:09.468Z,13.20
2022-11-09T05:29:32.704Z,13.20
2022-11-09T05:31:56.039Z,13.10
2022-11-09T05:34:19.284Z,13.10
2022-11-09T05:36:42.642Z,13.00
2022-11-09T05:39:05.945Z,13.00
2022-11-09T05:41:29.564Z,13.00
2022-11-09T05:43:54.333Z,13.00
2022-11-09T05:46:18.775Z,13.00
2022-11-09T05:48:42.403Z,13.00
2022-11-09T05:51:07.245Z,13.00
2022-11-09T05:53:30.887Z,13.00
2022-11-09T05:55:54.186Z,13.00
2022-11-09T05:58:17.406Z,12.90
2022-11-09T06:00:42.199Z,13.00
2022-11-09T06:03:06.823Z,12.90
2022-11-09T06:05:30.113Z,13.00
2022-11-09T06:07:53.394Z,12.90
2022-11-09T06:10:17.743Z,12.90
2022-11-09T06:12:41.082Z,13.00
2022-11-09T06:15:05.335Z,13.00
2022-11-09T06:17:30.066Z,12.90
2022-11-09T06:19:53.384Z,13.00
2022-11-09T06:22:16.736Z,13.00
2022-11-09T06:24:40.261Z,13.00
2022-11-09T06:27:03.593Z,13.00
2022-11-09T06:29:26.807Z,13.00
2022-11-09T06:31:51.370Z,13.00
2022-11-09T06:34:16.152Z,13.00
2022-11-09T06:36:39.498Z,13.00
2022-11-09T06:39:02.792Z,13.00
2022-11-09T06:41:26.049Z,12.90
2022-11-09T06:43:49.392Z,12.90
2022-11-09T06:46:17.289Z,13.00
2022-11-09T06:48:40.763Z,13.00
2022-11-09T06:51:07.543Z,13.00
2022-11-09T06:53:31.452Z,12.80
2022-11-09T06:55:58.804Z,12.90
2022-11-09T06:58:22.236Z,13.00
2022-11-09T07:00:46.913Z,12.90
2022-11-09T07:03:14.941Z,12.80
2022-11-09T07:05:40.347Z,12.70
2022-11-09T07:08:05.116Z,12.70
2022-11-09T07:10:28.434Z,12.50
2022-11-09T07:12:51.919Z,12.50
2022-11-09T07:15:15.142Z,12.50
2022-11-09T07:17:39.744Z,12.50
2022-11-09T07:20:03.007Z,12.50
2022-11-09T07:22:27.986Z,12.50
2022-11-09T07:24:53.092Z,12.50
2022-11-09T07:27:16.416Z,12.60
2022-11-09T07:29:39.733Z,12.60
2022-11-09T07:32:03.073Z,12.60
2022-11-09T07:34:26.324Z,12.60
2022-11-09T07:36:49.709Z,12.50
2022-11-09T07:39:13.040Z,12.50
2022-11-09T07:41:37.727Z,12.50
2022-11-09T07:44:01.753Z,12.50
2022-11-09T07:46:25.422Z,12.60
2022-11-09T07:48:48.698Z,12.60
2022-11-09T07:51:12.128Z,12.60
2022-11-09T07:53:35.467Z,12.70
2022-11-09T07:56:00.047Z,12.70
2022-11-09T07:58:24.636Z,12.70
2022-11-09T08:00:48.115Z,12.70
2022-11-09T08:03:12.060Z,12.70
2022-11-09T08:05:35.695Z,12.80
2022-11-09T08:08:01.337Z,12.80
2022-11-09T08:10:25.441Z,12.70
2022-11-09T08:12:57.881Z,12.80
2022-11-09T08:15:22.699Z,12.90
2022-11-09T08:17:45.925Z,13.00
2022-11-09T08:20:10.250Z,12.90
2022-11-09T08:22:33.567Z,12.90
2022-11-09T08:24:56.853Z,13.00
2022-11-09T08:27:20.343Z,13.00
2022-11-09T08:29:43.877Z,13.00
2022-11-09T08:32:08.765Z,13.10
2022-11-09T08:34:32.103Z,13.10
2022-11-09T08:36:55.386Z,13.20
2022-11-09T08:39:18.713Z,13.20
2022-11-09T08:41:42.083Z,13.30
2022-11-09T08:44:05.909Z,13.30
2022-11-09T08:46:49.004Z,13.40
2022-11-09T08:49:24.736Z,13.50
2022-11-09T08:51:49.952Z,13.50
2022-11-09T08:54:14.353Z,13.50
2022-11-09T08:56:40.582Z,13.50
2022-11-09T08:59:03.825Z,13.60
2022-11-09T09:01:27.446Z,13.70
2022-11-09T09:03:50.736Z,13.80
2022-11-09T09:06:15.707Z,13.80
2022-11-09T09:08:39.086Z,13.90
2022-11-09T09:11:04.137Z,14.00
2022-11-09T09:13:27.547Z,14.00
2022-11-09T09:15:51.343Z,14.00
2022-11-09T09:18:14.683Z,14.10
2022-11-09T09:20:38.010Z,14.10
2022-11-09T09:23:03.079Z,14.00
2022-11-09T09:25:26.926Z,14.10
2022-11-09T09:27:50.422Z,14.10
2022-11-09T09:30:15.144Z,14.10
2022-11-09T09:32:38.564Z,14.20
2022-11-09T09:35:01.927Z,14.20
2022-11-09T09:37:25.292Z,14.20
2022-11-09T09:39:50.126Z,14.20
2022-11-09T09:42:18.670Z,14.30
2022-11-09T09:44:46.473Z,14.30
2022-11-09T09:47:14.842Z,14.40
2022-11-09T09:49:43.336Z,14.30
2022-11-09T09:52:19.547Z,14.40
2022-11-09T09:54:46.127Z,14.50
2022-11-09T09:57:22.013Z,14.50
2022-11-09T09:59:51.111Z,14.50
2022-11-09T10:02:24.345Z,14.60
2022-11-09T10:04:49.359Z,14.60
2022-11-09T10:07:19.510Z,14.80
2022-11-09T10:10:17.795Z,14.80
2022-11-09T10:13:00.444Z,14.60
2022-11-09T10:15:32.996Z,14.60
2022-11-09T10:18:14.454Z,14.70
2022-11-09T10:20:57.509Z,14.60
2022-11-09T10:23:41.849Z,14.50
2022-11-09T10:26:15.987Z,14.50
2022-11-09T10:29:13.793Z,14.50
2022-11-09T10:31:33.321Z,14.50
2022-11-09T10:34:03.567Z,14.50
2022-11-09T10:36:33.040Z,14.60
2022-11-09T10:39:01.561Z,14.60
2022-11-09T10:41:46.747Z,14.50
2022-11-09T10:44:29.704Z,14.50
2022-11-09T10:47:14.539Z,14.60
2022-11-09T10:50:15.104Z,14.60
2022-11-09T10:53:13.607Z,14.80
2022-11-09T10:55:58.690Z,14.80
2022-11-09T10:58:46.810Z,14.90
2022-11-09T11:01:38.633Z,15.00
2022-11-09T11:04:25.487Z,15.00
2022-11-09T11:07:20.836Z,15.00
2022-11-09T11:10:12.678Z,15.00
2022-11-09T11:13:24.343Z,14.90
2022-11-09T11:16:26.056Z,14.90
2022-11-09T11:19:28.768Z,15.00
2022-11-09T11:22:22.721Z,15.00
2022-11-09T11:25:19.525Z,15.00
2022-11-09T11:28:12.247Z,15.20
2022-11-09T11:30:54.456Z,15.10
2022-11-09T11:33:36.735Z,15.00
2022-11-09T11:36:31.745Z,15.00
2022-11-09T11:39:29.785Z,15.00
2022-11-09T11:42:35.565Z,15.00
2022-11-09T11:45:41.543Z,15.00
2022-11-09T11:49:12.786Z,15.00
2022-11-09T11:52:02.912Z,15.00
2022-11-09T11:55:05.603Z,15.00
2022-11-09T11:58:13.056Z,15.10
2022-11-09T12:01:03.842Z,15.00
2022-11-09T12:04:02.941Z,14.80
2022-11-09T12:07:13.123Z,14.80
2022-11-09T12:10:15.230Z,15.00
2022-11-09T12:13:07.442Z,15.10
2022-11-09T12:15:58.523Z,15.00
2022-11-09T12:18:53.272Z,14.90
2022-11-09T12:21:43.867Z,14.90
2022-11-09T12:24:35.820Z,15.00
2022-11-09T12:27:46.754Z,15.00
2022-11-09T12:30:39.184Z,14.90
2022-11-09T12:33:33.682Z,14.90
2022-11-09T12:36:21.770Z,15.00
2022-11-09T12:39:09.010Z,15.00
2022-11-09T12:41:54.768Z,15.00
2022-11-09T12:44:44.162Z,15.00
2022-11-09T12:47:31.522Z,15.00
2022-11-09T12:50:16.694Z,15.00
2022-11-09T12:52:59.445Z,15.10
2022-11-09T12:55:49.031Z,15.10
2022-11-09T12:58:35.915Z,15.00
2022-11-09T13:01:49.670Z,15.00
2022-11-09T13:04:32.089Z,15.00
2022-11-09T13:07:32.903Z,15.00
2022-11-09T13:10:33.051Z,15.00
2022-11-09T13:13:25.259Z,15.00
2022-11-09T13:16:35.226Z,15.00
2022-11-09T13:19:54.312Z,15.10
2022-11-09T13:23:02.510Z,15.00
2022-11-09T13:25:53.783Z,15.00
2022-11-09T13:29:11.088Z,15.10
2022-11-09T13:32:26.085Z,15.20
2022-11-09T13:36:00.140Z,15.10
2022-11-09T13:38:42.387Z,15.10
2022-11-09T13:41:44.814Z,15.00
2022-11-09T13:44:32.954Z,15.00
2022-11-09T13:47:34.265Z,15.00
2022-11-09T13:50:21.091Z,14.90
2022-11-09T13:53:04.195Z,14.80
2022-11-09T13:55:46.145Z,14.90
2022-11-09T13:58:35.778Z,14.80
2022-11-09T14:01:28.038Z,14.90
2022-11-09T14:04:23.415Z,14.80
2022-11-09T14:07:08.544Z,14.60
2022-11-09T14:10:01.372Z,14.50
2022-11-09T14:12:55.413Z,14.50
2022-11-09T14:15:47.349Z,14.50
2022-11-09T14:18:44.691Z,14.50
2022-11-09T14:21:45.053Z,14.50
2022-11-09T14:24:30.780Z,14.60
2022-11-09T14:27:20.780Z,14.60
2022-11-09T14:30:03.044Z,14.70
2022-11-09T14:32:51.104Z,14.60
2022-11-09T14:35:35.065Z,14.70
2022-11-09T14:38:21.228Z,14.70
2022-11-09T14:41:04.392Z,14.80
2022-11-09T14:43:46.842Z,14.70
2022-11-09T14:46:30.997Z,14.60
2022-11-09T14:49:14.434Z,14.50
2022-11-09T14:51:56.462Z,14.50
2022-11-09T14:54:44.839Z,14.50
2022-11-09T14:57:27.868Z,14.40
2022-11-09T15:00:26.285Z,14.30
2022-11-09T15:03:26.991Z,14.30
2022-11-09T15:06:12.560Z,14.20
2022-11-09T15:08:58.008Z,14.20
2022-11-09T15:11:42.253Z,14.10
2022-11-09T15:14:30.057Z,14.10
2022-11-09T15:17:17.235Z,13.90
2022-11-09T15:20:01.388Z,13.80
2022-11-09T15:22:52.713Z,13.70
2022-11-09T15:25:55.830Z,13.70
2022-11-09T15:28:47.961Z,13.50
2022-11-09T15:31:30.270Z,13.50
2022-11-09T15:34:29.138Z,13.50
2022-11-09T15:37:25.381Z,13.40
2022-11-09T15:40:13.121Z,13.40
2022-11-09T15:42:54.884Z,13.40
2022-11-09T15:45:40.209Z,13.30
2022-11-09T15:48:22.761Z,13.20
2022-11-09T15:51:05.346Z,13.20
2022-11-09T15:53:47.089Z,13.20
2022-11-09T15:56:29.346Z,13.10
2022-11-09T15:59:21.238Z,13.10
2022-11-09T16:02:05.088Z,13.10
2022-11-09T16:04:47.211Z,13.00
2022-11-09T16:07:28.927Z,13.00
2022-11-09T16:10:15.171Z,12.80
2022-11-09T16:12:57.382Z,12.80
2022-11-09T16:15:40.247Z,12.80
2022-11-09T16:18:26.182Z,12.90
2022-11-09T16:21:09.532Z,12.80
2022-11-09T16:23:57.108Z,12.70
2022-11-09T16:26:40.194Z,12.80
2022-11-09T16:29:24.370Z,12.80
2022-11-09T16:32:09.809Z,12.60
2022-11-09T16:35:15.334Z,12.90
2022-11-09T16:37:55.534Z,12.80
2022-11-09T16:40:39.167Z,12.60
2022-11-09T16:43:20.934Z,12.60
2022-11-09T16:46:03.042Z,12.60
2022-11-09T16:48:45.010Z,12.50
2022-11-09T16:51:28.635Z,12.50
2022-11-09T16:54:10.448Z,12.50
2022-11-09T16:56:53.542Z,12.60
2022-11-09T16:59:35.310Z,12.50
2022-11-09T17:02:17.183Z,12.40
2022-11-09T17:04:58.941Z,12.50
2022-11-09T17:07:43.035Z,12.50
2022-11-09T17:10:24.930Z,12.50
2022-11-09T17:13:07.337Z,12.50
2022-11-09T17:15:52.568Z,12.50
2022-11-09T17:18:34.937Z,12.50
2022-11-09T17:21:16.922Z,12.50
2022-11-09T17:24:00.876Z,12.40
2022-11-09T17:26:42.676Z,12.60
2022-11-09T17:29:24.742Z,12.80
2022-11-09T17:32:08.984Z,12.80
2022-11-09T17:34:50.877Z,12.80
2022-11-09T17:37:34.406Z,12.80
2022-11-09T17:40:19.950Z,12.80
2022-11-09T17:43:01.927Z,12.70
2022-11-09T17:45:44.164Z,12.70
2022-11-09T17:48:26.046Z,12.70
2022-11-09T17:51:09.572Z,12.70
2022-11-09T17:53:51.450Z,12.70
2022-11-09T17:56:35.929Z,12.70
2022-11-09T17:59:18.167Z,12.60
2022-11-09T18:02:00.340Z,12.60
2022-11-09T18:04:42.100Z,12.60
2022-11-09T18:07:25.242Z,12.40
2022-11-09T18:10:07.967Z,12.50
2022-11-09T18:12:51.139Z,12.60
2022-11-09T18:15:33.265Z,12.50
2022-11-09T18:18:14.871Z,12.40
2022-11-09T18:20:56.916Z,12.50
2022-11-09T18:23:39.298Z,12.40
2022-11-09T18:26:21.325Z,12.40
2022-11-09T18:29:04.740Z,12.40
2022-11-09T18:31:46.538Z,12.40
2022-11-09T18:34:28.042Z,12.30
2022-11-09T18:37:10.256Z,12.30
2022-11-09T18:39:52.199Z,12.20
2022-11-09T18:42:34.146Z,12.30
2022-11-09T18:45:17.568Z,12.30
2022-11-09T18:47:59.571Z,12.30
2022-11-09T18:50:41.721Z,12.20
2022-11-09T18:53:25.694Z,12.10
2022-11-09T18:56:12.131Z,12.10
2022-11-09T18:58:56.280Z,12.00
2022-11-09T19:01:40.186Z,12.00
2022-11-09T19:04:22.229Z,11.90
2022-11-09T19:07:04.524Z,11.80
2022-11-09T19:09:46.864Z,11.70
2022-11-09T19:12:29.566Z,11.70
2022-11-09T19:15:12.139Z,11.70
2022-11-09T19:17:55.459Z,11.70
2022-11-09T19:20:40.129Z,11.80
2022-11-09T19:23:22.232Z,11.70
2022-11-09T19:26:04.163Z,11.90
2022-11-09T19:28:46.207Z,11.80
2022-11-09T19:31:28.221Z,11.90
2022-11-09T19:34:11.565Z,11.80
2022-11-09T19:36:53.609Z,11.70
2022-11-09T19:39:39.157Z,11.80
2022-11-09T19:42:23.765Z,11.70
2022-11-09T19:45:06.937Z,11.70
2022-11-09T19:47:50.686Z,11.60
2022-11-09T19:50:33.807Z,11.60
2022-11-09T19:53:15.860Z,11.50
2022-11-09T19:56:01.054Z,11.50
2022-11-09T19:58:43.086Z,11.50
2022-11-09T20:01:25.550Z,11.60
2022-11-09T20:04:10.269Z,11.50
2022-11-09T20:06:53.689Z,11.50
2022-11-09T20:09:35.868Z,11.50
2022-11-09T20:12:35.341Z,11.50
2022-11-09T20:15:18.187Z,11.40
2022-11-09T20:18:00.009Z,11.40
2022-11-09T20:20:42.264Z,11.30
2022-11-09T20:23:25.398Z,11.30
2022-11-09T20:26:08.958Z,11.00
2022-11-09T20:28:52.892Z,10.90
2022-11-09T20:31:34.826Z,10.80
2022-11-09T20:34:17.073Z,10.80
2022-11-09T20:36:59.113Z,10.80
2022-11-09T20:39:43.186Z,10.70
2022-11-09T20:42:25.508Z,10.70
2022-11-09T20:45:08.752Z,10.70
2022-11-09T20:48:10.150Z,10.60
2022-11-09T20:50:52.211Z,10.60
2022-11-09T20:53:34.557Z,10.80
2022-11-09T20:56:18.482Z,10.80
2022-11-09T20:59:00.140Z,10.80
2022-11-09T21:01:41.912Z,10.80
2022-11-09T21:04:23.649Z,10.70
2022-11-09T21:07:05.622Z,10.70
2022-11-09T21:09:47.736Z,11.00
2022-11-09T21:12:31.170Z,11.00
2022-11-09T21:15:14.077Z,11.00
2022-11-09T21:17:56.022Z,11.10
2022-11-09T21:20:38.595Z,11.10
2022-11-09T21:23:38.072Z,11.10
2022-11-09T21:26:37.799Z,11.00
2022-11-09T21:29:41.318Z,11.00
2022-11-09T21:32:24.743Z,11.00
2022-11-09T21:35:08.214Z,11.00
2022-11-09T21:37:50.082Z,11.00
2022-11-09T21:40:32.200Z,10.90
2022-11-09T21:43:14.006Z,11.00
2022-11-09T21:45:57.286Z,11.00
2022-11-09T21:48:39.466Z,11.00
2022-11-09T21:51:21.054Z,11.00
2022-11-09T21:54:03.489Z,11.00
2022-11-09T21:56:45.533Z,11.00
2022-11-09T21:59:27.669Z,11.00
2022-11-09T22:02:12.224Z,11.00
2022-11-09T22:04:54.296Z,11.00
2022-11-09T22:07:36.639Z,11.00
2022-11-09T22:10:18.671Z,11.00
2022-11-09T22:13:18.967Z,11.20
2022-11-09T22:16:07.590Z,11.10
2022-11-09T22:19:08.495Z,11.30
2022-11-09T22:21:50.359Z,11.20
2022-11-09T22:24:32.440Z,11.10
2022-11-09T22:27:14.575Z,11.00
2022-11-09T22:29:56.242Z,11.00
2022-11-09T22:32:38.252Z,11.00
2022-11-09T22:35:21.334Z,11.10
2022-11-09T22:38:03.396Z,11.10
2022-11-09T22:40:45.103Z,11.10
2022-11-09T22:43:27.074Z,11.00
2022-11-09T22:46:11.211Z,11.00
2022-11-09T22:48:53.160Z,11.00
2022-11-09T22:51:37.068Z,11.00
2022-11-09T22:54:19.234Z,11.00
2022-11-09T22:57:01.363Z,11.00
2022-11-09T22:59:43.270Z,11.00
2022-11-09T23:02:24.900Z,11.00
2022-11-09T23:05:08.787Z,10.90
2022-11-09T23:07:51.871Z,10.90
2022-11-09T23:10:34.307Z,10.80
2022-11-09T23:13:16.410Z,11.00
2022-11-09T23:16:00.309Z,11.00
2022-11-09T23:18:57.432Z,11.00
2022-11-09T23:21:39.164Z,11.00
2022-11-09T23:24:36.379Z,11.00
2022-11-09T23:27:18.133Z,11.00
2022-11-09T23:30:00.007Z,10.90
2022-11-09T23:32:42.039Z,10.90
2022-11-09T23:35:23.766Z,11.00
2022-11-09T23:38:07.202Z,10.90
2022-11-09T23:40:51.002Z,11.00
2022-11-09T23:43:33.280Z,10.80
2022-11-09T23:46:16.332Z,10.80
2022-11-09T23:48:58.132Z,10.90
2022-11-09T23:51:40.065Z,10.90
2022-11-09T23:54:22.217Z,10.80
2022-11-09T23:57:05.629Z,10.90
2022-11-09T23:59:47.408Z,11.00
